sensor_id;sensor_type;location;lat;lon;timestamp;pressure;altitude;pressure_sealevel;temperature;humidity
69460;BME280;57182;55.712;37.612;2022-07-23T00:01:29;99914.72;;;18.34;70.47
69460;BME280;57182;55.712;37.612;2022-07-23T00:04:01;99908.28;;;18.37;70.38
69460;BME280;57182;55.712;37.612;2022-07-23T00:06:33;99929.13;;;18.41;71.72
69460;BME280;57182;55.712;37.612;2022-07-23T00:09:13;99932.75;;;18.40;70.82
69460;BME280;57182;55.712;37.612;2022-07-23T00:11:51;99936.53;;;18.38;70.95
69460;BME280;57182;55.712;37.612;2022-07-23T00:14:26;99900.31;;;18.08;70.92
69460;BME280;57182;55.712;37.612;2022-07-23T00:17:10;99927.72;;;18.28;71.12
69460;BME280;57182;55.712;37.612;2022-07-23T00:19:39;99920.72;;;18.17;71.54
69460;BME280;57182;55.712;37.612;2022-07-23T00:22:14;99919.06;;;18.16;71.26
69460;BME280;57182;55.712;37.612;2022-07-23T00:24:46;99902.53;;;18.12;71.57
69460;BME280;57182;55.712;37.612;2022-07-23T00:27:34;99907.69;;;18.04;71.39
69460;BME280;57182;55.712;37.612;2022-07-23T00:30:08;99929.53;;;18.17;72.60
69460;BME280;57182;55.712;37.612;2022-07-23T00:32:53;99908.25;;;17.98;73.19
69460;BME280;57182;55.712;37.612;2022-07-23T00:35:39;99908.38;;;17.97;72.30
69460;BME280;57182;55.712;37.612;2022-07-23T00:38:14;99910.34;;;17.95;72.15
69460;BME280;57182;55.712;37.612;2022-07-23T00:44:18;99904.59;;;17.80;73.58
69460;BME280;57182;55.712;37.612;2022-07-23T00:46:53;99915.22;;;17.80;72.66
69460;BME280;57182;55.712;37.612;2022-07-23T00:49:39;99905.81;;;17.76;73.43
69460;BME280;57182;55.712;37.612;2022-07-23T00:52:28;99930.75;;;17.94;72.97
69460;BME280;57182;55.712;37.612;2022-07-23T00:54:56;99926.81;;;17.89;73.11
69460;BME280;57182;55.712;37.612;2022-07-23T00:57:58;99946.13;;;17.91;72.95
69460;BME280;57182;55.712;37.612;2022-07-23T01:00:28;99919.69;;;17.80;73.16
69460;BME280;57182;55.712;37.612;2022-07-23T01:02:58;99910.84;;;17.70;73.43
69460;BME280;57182;55.712;37.612;2022-07-23T01:05:25;99955.06;;;17.90;73.44
69460;BME280;57182;55.712;37.612;2022-07-23T01:07:53;99913.06;;;17.65;73.85
69460;BME280;57182;55.712;37.612;2022-07-23T01:10:41;99910.00;;;17.69;73.58
69460;BME280;57182;55.712;37.612;2022-07-23T01:13:19;99949.47;;;17.93;73.43
69460;BME280;57182;55.712;37.612;2022-07-23T01:15:54;99930.13;;;17.72;73.41
69460;BME280;57182;55.712;37.612;2022-07-23T01:18:37;99942.03;;;17.77;73.72
69460;BME280;57182;55.712;37.612;2022-07-23T01:21:11;99919.22;;;17.65;74.06
69460;BME280;57182;55.712;37.612;2022-07-23T01:24:04;99909.72;;;17.63;73.76
69460;BME280;57182;55.712;37.612;2022-07-23T01:26:42;99905.22;;;17.63;74.11
69460;BME280;57182;55.712;37.612;2022-07-23T01:29:13;99923.28;;;17.69;74.37
69460;BME280;57182;55.712;37.612;2022-07-23T01:31:47;99912.81;;;17.68;73.73
69460;BME280;57182;55.712;37.612;2022-07-23T01:34:19;99924.97;;;17.70;73.80
69460;BME280;57182;55.712;37.612;2022-07-23T01:36:58;99908.78;;;17.73;73.74
69460;BME280;57182;55.712;37.612;2022-07-23T01:39:54;99941.78;;;17.90;74.71
69460;BME280;57182;55.712;37.612;2022-07-23T01:46:34;99932.25;;;17.78;73.71
69460;BME280;57182;55.712;37.612;2022-07-23T01:49:05;99901.00;;;17.60;74.50
69460;BME280;57182;55.712;37.612;2022-07-23T01:52:01;99912.63;;;17.59;74.19
69460;BME280;57182;55.712;37.612;2022-07-23T01:54:35;99925.94;;;17.69;74.12
69460;BME280;57182;55.712;37.612;2022-07-23T01:57:10;99931.81;;;17.73;74.35
69460;BME280;57182;55.712;37.612;2022-07-23T01:59:50;99930.56;;;17.77;74.64
69460;BME280;57182;55.712;37.612;2022-07-23T02:02:20;99939.91;;;17.71;74.67
69460;BME280;57182;55.712;37.612;2022-07-23T02:05:00;99915.56;;;17.66;74.48
69460;BME280;57182;55.712;37.612;2022-07-23T02:07:33;99938.25;;;17.80;74.56
69460;BME280;57182;55.712;37.612;2022-07-23T02:10:21;99912.53;;;17.71;74.69
69460;BME280;57182;55.712;37.612;2022-07-23T02:12:55;99950.00;;;17.87;74.83
69460;BME280;57182;55.712;37.612;2022-07-23T02:15:28;99928.50;;;17.80;74.86
69460;BME280;57182;55.712;37.612;2022-07-23T02:18:19;99906.31;;;17.60;74.63
69460;BME280;57182;55.712;37.612;2022-07-23T02:21:00;99920.63;;;17.69;74.46
69460;BME280;57182;55.712;37.612;2022-07-23T02:23:41;99916.00;;;17.71;74.95
69460;BME280;57182;55.712;37.612;2022-07-23T02:26:14;99906.38;;;17.70;75.12
69460;BME280;57182;55.712;37.612;2022-07-23T02:29:05;99944.28;;;17.91;75.63
69460;BME280;57182;55.712;37.612;2022-07-23T02:31:39;99908.31;;;17.68;75.18
69460;BME280;57182;55.712;37.612;2022-07-23T02:34:30;99932.09;;;17.79;75.24
69460;BME280;57182;55.712;37.612;2022-07-23T02:37:01;99910.75;;;17.81;75.28
69460;BME280;57182;55.712;37.612;2022-07-23T02:39:32;99924.31;;;17.87;74.78
69460;BME280;57182;55.712;37.612;2022-07-23T02:42:07;99922.50;;;17.97;75.69
69460;BME280;57182;55.712;37.612;2022-07-23T02:44:43;99948.97;;;18.08;75.36
69460;BME280;57182;55.712;37.612;2022-07-23T02:47:27;99916.78;;;18.02;75.28
69460;BME280;57182;55.712;37.612;2022-07-23T02:50:06;99931.63;;;18.14;75.06
69460;BME280;57182;55.712;37.612;2022-07-23T02:53:08;99906.31;;;18.10;74.65
69460;BME280;57182;55.712;37.612;2022-07-23T02:55:47;99939.78;;;18.32;73.90
69460;BME280;57182;55.712;37.612;2022-07-23T02:58:18;99943.72;;;18.47;73.57
69460;BME280;57182;55.712;37.612;2022-07-23T03:00:52;99921.59;;;18.37;73.96
69460;BME280;57182;55.712;37.612;2022-07-23T03:03:23;99907.44;;;18.36;73.53
69460;BME280;57182;55.712;37.612;2022-07-23T03:06:05;99902.97;;;18.37;73.11
69460;BME280;57182;55.712;37.612;2022-07-23T03:08:48;99918.25;;;18.54;72.68
69460;BME280;57182;55.712;37.612;2022-07-23T03:11:20;99919.34;;;18.70;72.32
69460;BME280;57182;55.712;37.612;2022-07-23T03:13:55;99923.53;;;18.73;71.42
69460;BME280;57182;55.712;37.612;2022-07-23T03:16:31;99950.09;;;19.02;71.15
69460;BME280;57182;55.712;37.612;2022-07-23T03:19:08;99912.19;;;18.90;71.06
69460;BME280;57182;55.712;37.612;2022-07-23T03:22:02;99915.41;;;18.94;71.03
69460;BME280;57182;55.712;37.612;2022-07-23T03:24:44;99956.41;;;19.10;71.29
69460;BME280;57182;55.712;37.612;2022-07-23T03:27:41;99926.72;;;19.05;70.98
69460;BME280;57182;55.712;37.612;2022-07-23T03:30:40;99946.13;;;19.25;70.54
69460;BME280;57182;55.712;37.612;2022-07-23T03:33:22;99955.94;;;19.34;69.91
69460;BME280;57182;55.712;37.612;2022-07-23T03:36:15;99939.41;;;19.30;69.78
69460;BME280;57182;55.712;37.612;2022-07-23T03:38:58;99920.38;;;19.25;69.30
69460;BME280;57182;55.712;37.612;2022-07-23T03:41:50;99942.13;;;19.58;69.09
69460;BME280;57182;55.712;37.612;2022-07-23T03:44:43;99904.03;;;19.48;69.35
69460;BME280;57182;55.712;37.612;2022-07-23T03:47:20;99911.69;;;19.60;68.42
69460;BME280;57182;55.712;37.612;2022-07-23T03:53:38;99934.84;;;19.87;67.95
69460;BME280;57182;55.712;37.612;2022-07-23T03:56:10;99930.69;;;20.02;67.16
69460;BME280;57182;55.712;37.612;2022-07-23T03:58:42;99943.44;;;20.08;67.33
69460;BME280;57182;55.712;37.612;2022-07-23T04:01:19;99943.06;;;20.21;66.54
69460;BME280;57182;55.712;37.612;2022-07-23T04:03:49;99931.00;;;20.17;66.31
69460;BME280;57182;55.712;37.612;2022-07-23T04:06:17;99962.44;;;20.40;66.41
69460;BME280;57182;55.712;37.612;2022-07-23T04:08:49;99932.13;;;20.41;66.17
69460;BME280;57182;55.712;37.612;2022-07-23T04:11:28;99945.38;;;20.51;65.52
69460;BME280;57182;55.712;37.612;2022-07-23T04:14:09;99936.06;;;20.55;65.06
69460;BME280;57182;55.712;37.612;2022-07-23T04:17:01;99934.31;;;20.63;64.94
69460;BME280;57182;55.712;37.612;2022-07-23T04:19:35;99948.63;;;20.80;65.42
69460;BME280;57182;55.712;37.612;2022-07-23T04:22:18;99923.34;;;20.66;65.22
69460;BME280;57182;55.712;37.612;2022-07-23T04:24:54;99930.19;;;20.87;64.87
69460;BME280;57182;55.712;37.612;2022-07-23T04:27:41;99928.50;;;20.86;64.45
69460;BME280;57182;55.712;37.612;2022-07-23T04:30:20;99959.59;;;21.12;64.41
69460;BME280;57182;55.712;37.612;2022-07-23T04:32:58;99921.47;;;21.02;63.50
69460;BME280;57182;55.712;37.612;2022-07-23T04:35:38;99938.50;;;21.27;63.02
69460;BME280;57182;55.712;37.612;2022-07-23T04:38:24;99931.84;;;21.31;62.53
69460;BME280;57182;55.712;37.612;2022-07-23T04:40:59;99952.16;;;21.50;62.10
69460;BME280;57182;55.712;37.612;2022-07-23T04:43:33;99936.78;;;21.52;62.28
69460;BME280;57182;55.712;37.612;2022-07-23T04:46:08;99924.84;;;21.64;61.98
69460;BME280;57182;55.712;37.612;2022-07-23T04:48:46;99918.72;;;21.79;61.34
69460;BME280;57182;55.712;37.612;2022-07-23T04:51:27;99926.81;;;21.96;60.70
69460;BME280;57182;55.712;37.612;2022-07-23T04:54:04;99937.94;;;22.25;59.69
69460;BME280;57182;55.712;37.612;2022-07-23T04:56:45;99956.66;;;22.41;59.50
69460;BME280;57182;55.712;37.612;2022-07-23T04:59:22;99954.88;;;22.58;59.04
69460;BME280;57182;55.712;37.612;2022-07-23T05:02:08;99904.53;;;22.53;59.05
69460;BME280;57182;55.712;37.612;2022-07-23T05:04:45;99937.19;;;22.89;58.21
69460;BME280;57182;55.712;37.612;2022-07-23T05:07:14;99926.97;;;22.92;58.38
69460;BME280;57182;55.712;37.612;2022-07-23T05:09:46;99892.47;;;22.97;58.13
69460;BME280;57182;55.712;37.612;2022-07-23T05:12:27;99909.69;;;23.27;57.09
69460;BME280;57182;55.712;37.612;2022-07-23T05:15:20;99892.75;;;23.43;56.95
69460;BME280;57182;55.712;37.612;2022-07-23T05:17:59;99913.44;;;23.65;56.02
69460;BME280;57182;55.712;37.612;2022-07-23T05:20:53;99912.34;;;23.82;56.02
69460;BME280;57182;55.712;37.612;2022-07-23T05:23:28;99924.25;;;24.18;55.89
69460;BME280;57182;55.712;37.612;2022-07-23T05:25:58;99900.94;;;24.19;55.65
69460;BME280;57182;55.712;37.612;2022-07-23T05:28:31;99895.47;;;24.35;54.59
69460;BME280;57182;55.712;37.612;2022-07-23T05:31:01;99914.06;;;24.59;54.16
69460;BME280;57182;55.712;37.612;2022-07-23T05:33:37;99918.94;;;25.01;53.12
69460;BME280;57182;55.712;37.612;2022-07-23T05:36:10;99923.06;;;25.41;53.34
69460;BME280;57182;55.712;37.612;2022-07-23T05:39:16;99895.72;;;26.17;51.66
69460;BME280;57182;55.712;37.612;2022-07-23T05:41:57;99917.38;;;27.15;48.54
69460;BME280;57182;55.712;37.612;2022-07-23T05:44:30;99915.13;;;27.93;48.64
69460;BME280;57182;55.712;37.612;2022-07-23T05:47:15;99898.53;;;28.70;44.40
69460;BME280;57182;55.712;37.612;2022-07-23T05:49:48;99883.53;;;29.40;44.11
69460;BME280;57182;55.712;37.612;2022-07-23T05:52:44;99913.06;;;30.12;40.01
69460;BME280;57182;55.712;37.612;2022-07-23T05:55:35;99907.66;;;30.74;41.35
69460;BME280;57182;55.712;37.612;2022-07-23T05:58:35;99902.69;;;31.21;37.23
69460;BME280;57182;55.712;37.612;2022-07-23T06:01:06;99887.59;;;31.86;38.26
69460;BME280;57182;55.712;37.612;2022-07-23T06:04:01;99902.38;;;32.49;36.08
69460;BME280;57182;55.712;37.612;2022-07-23T06:07:03;99913.00;;;32.92;34.80
69460;BME280;57182;55.712;37.612;2022-07-23T06:09:42;99903.94;;;33.10;34.53
69460;BME280;57182;55.712;37.612;2022-07-23T06:13:06;99914.09;;;32.91;33.64
69460;BME280;57182;55.712;37.612;2022-07-23T06:16:34;99890.66;;;33.02;34.55
69460;BME280;57182;55.712;37.612;2022-07-23T06:19:37;99890.56;;;33.20;32.25
69460;BME280;57182;55.712;37.612;2022-07-23T06:22:31;99886.56;;;33.57;32.78
69460;BME280;57182;55.712;37.612;2022-07-23T06:25:31;99883.16;;;33.78;32.45
69460;BME280;57182;55.712;37.612;2022-07-23T06:28:53;99887.16;;;34.27;32.36
69460;BME280;57182;55.712;37.612;2022-07-23T06:31:40;99896.31;;;34.66;31.77
69460;BME280;57182;55.712;37.612;2022-07-23T06:34:34;99878.63;;;34.68;30.54
69460;BME280;57182;55.712;37.612;2022-07-23T06:37:10;99905.09;;;35.01;31.09
69460;BME280;57182;55.712;37.612;2022-07-23T06:39:47;99894.66;;;34.98;30.13
69460;BME280;57182;55.712;37.612;2022-07-23T06:42:28;99902.91;;;35.36;30.49
69460;BME280;57182;55.712;37.612;2022-07-23T06:45:06;99881.78;;;35.10;30.64
69460;BME280;57182;55.712;37.612;2022-07-23T06:47:36;99900.03;;;35.26;30.73
69460;BME280;57182;55.712;37.612;2022-07-23T06:58:24;99876.59;;;35.90;29.97
69460;BME280;57182;55.712;37.612;2022-07-23T07:00:54;99887.66;;;36.01;29.06
69460;BME280;57182;55.712;37.612;2022-07-23T07:03:26;99879.38;;;36.17;28.34
69460;BME280;57182;55.712;37.612;2022-07-23T07:06:00;99883.09;;;36.33;28.35
69460;BME280;57182;55.712;37.612;2022-07-23T07:08:30;99891.66;;;36.68;28.33
69460;BME280;57182;55.712;37.612;2022-07-23T07:11:01;99894.13;;;36.70;28.17
69460;BME280;57182;55.712;37.612;2022-07-23T07:14:05;99887.50;;;36.61;27.18
69460;BME280;57182;55.712;37.612;2022-07-23T07:16:54;99859.84;;;36.30;27.65
69460;BME280;57182;55.712;37.612;2022-07-23T07:19:26;99865.88;;;36.32;27.83
69460;BME280;57182;55.712;37.612;2022-07-23T07:24:57;99875.50;;;36.67;27.23
69460;BME280;57182;55.712;37.612;2022-07-23T07:27:36;99890.41;;;35.79;27.50
69460;BME280;57182;55.712;37.612;2022-07-23T07:30:36;99880.53;;;35.78;28.08
69460;BME280;57182;55.712;37.612;2022-07-23T07:33:16;99875.59;;;36.18;27.12
69460;BME280;57182;55.712;37.612;2022-07-23T07:35:49;99881.66;;;36.84;26.71
69460;BME280;57182;55.712;37.612;2022-07-23T07:38:23;99885.19;;;37.16;26.54
69460;BME280;57182;55.712;37.612;2022-07-23T07:41:11;99870.25;;;36.33;27.50
69460;BME280;57182;55.712;37.612;2022-07-23T07:43:40;99886.59;;;34.70;29.26
69460;BME280;57182;55.712;37.612;2022-07-23T07:46:23;99877.72;;;33.78;29.88
69460;BME280;57182;55.712;37.612;2022-07-23T07:48:53;99886.59;;;34.70;29.44
69460;BME280;57182;55.712;37.612;2022-07-23T07:51:35;99875.41;;;34.27;29.18
69460;BME280;57182;55.712;37.612;2022-07-23T07:54:12;99883.22;;;32.97;31.23
69460;BME280;57182;55.712;37.612;2022-07-23T07:57:02;99891.56;;;32.19;32.51
69460;BME280;57182;55.712;37.612;2022-07-23T07:59:42;99866.91;;;32.85;31.98
69460;BME280;57182;55.712;37.612;2022-07-23T08:02:13;99877.91;;;34.28;30.54
69460;BME280;57182;55.712;37.612;2022-07-23T08:04:54;99863.19;;;35.07;29.46
69460;BME280;57182;55.712;37.612;2022-07-23T08:07:36;99882.38;;;34.79;29.80
69460;BME280;57182;55.712;37.612;2022-07-23T08:10:28;99872.69;;;35.05;28.86
69460;BME280;57182;55.712;37.612;2022-07-23T08:17:27;99863.84;;;36.49;27.73
69460;BME280;57182;55.712;37.612;2022-07-23T08:19:59;99870.19;;;35.58;28.43
69460;BME280;57182;55.712;37.612;2022-07-23T08:22:55;99888.88;;;34.05;29.49
69460;BME280;57182;55.712;37.612;2022-07-23T08:25:36;99860.34;;;34.07;30.85
69460;BME280;57182;55.712;37.612;2022-07-23T08:28:11;99891.09;;;33.80;31.20
69460;BME280;57182;55.712;37.612;2022-07-23T08:31:10;99886.38;;;32.71;31.51
69460;BME280;57182;55.712;37.612;2022-07-23T08:34:02;99883.47;;;31.65;33.70
69460;BME280;57182;55.712;37.612;2022-07-23T08:36:49;99890.75;;;31.03;34.01
69460;BME280;57182;55.712;37.612;2022-07-23T08:40:03;99879.28;;;31.81;32.84
69460;BME280;57182;55.712;37.612;2022-07-23T08:42:41;99852.00;;;33.00;31.16
69460;BME280;57182;55.712;37.612;2022-07-23T08:45:18;99868.16;;;34.32;28.69
69460;BME280;57182;55.712;37.612;2022-07-23T08:47:54;99845.53;;;34.98;28.34
69460;BME280;57182;55.712;37.612;2022-07-23T08:50:35;99846.63;;;34.97;28.63
69460;BME280;57182;55.712;37.612;2022-07-23T08:53:12;99857.38;;;35.59;27.78
69460;BME280;57182;55.712;37.612;2022-07-23T08:56:20;99869.09;;;36.29;26.65
69460;BME280;57182;55.712;37.612;2022-07-23T08:59:44;99861.69;;;35.76;26.63
69460;BME280;57182;55.712;37.612;2022-07-23T09:03:05;99838.06;;;36.77;25.94
69460;BME280;57182;55.712;37.612;2022-07-23T09:06:40;99853.00;;;36.59;26.09
69460;BME280;57182;55.712;37.612;2022-07-23T09:10:05;99867.00;;;36.95;26.83
69460;BME280;57182;55.712;37.612;2022-07-23T09:13:49;99855.28;;;37.51;24.89
69460;BME280;57182;55.712;37.612;2022-07-23T09:16:41;99863.00;;;37.12;25.73
69460;BME280;57182;55.712;37.612;2022-07-23T09:19:15;99841.81;;;36.34;26.62
69460;BME280;57182;55.712;37.612;2022-07-23T09:21:47;99830.69;;;35.06;28.45
69460;BME280;57182;55.712;37.612;2022-07-23T09:24:18;99845.19;;;33.72;29.60
69460;BME280;57182;55.712;37.612;2022-07-23T09:26:51;99832.34;;;32.74;31.16
69460;BME280;57182;55.712;37.612;2022-07-23T09:29:55;99859.34;;;32.05;32.42
69460;BME280;57182;55.712;37.612;2022-07-23T09:32:39;99853.19;;;33.27;31.04
69460;BME280;57182;55.712;37.612;2022-07-23T09:35:45;99836.31;;;34.66;28.79
69460;BME280;57182;55.712;37.612;2022-07-23T09:39:00;99829.41;;;35.52;27.51
69460;BME280;57182;55.712;37.612;2022-07-23T09:41:42;99832.41;;;35.72;26.77
69460;BME280;57182;55.712;37.612;2022-07-23T09:44:23;99825.84;;;36.48;26.13
69460;BME280;57182;55.712;37.612;2022-07-23T09:46:59;99830.88;;;37.03;25.52
69460;BME280;57182;55.712;37.612;2022-07-23T09:49:29;99821.03;;;36.97;25.58
69460;BME280;57182;55.712;37.612;2022-07-23T09:51:59;99812.09;;;37.16;24.94
69460;BME280;57182;55.712;37.612;2022-07-23T09:54:32;99823.78;;;37.54;24.68
69460;BME280;57182;55.712;37.612;2022-07-23T09:57:11;99808.50;;;37.11;24.71
69460;BME280;57182;55.712;37.612;2022-07-23T09:59:44;99823.25;;;37.62;24.72
69460;BME280;57182;55.712;37.612;2022-07-23T10:02:20;99805.56;;;37.95;23.62
69460;BME280;57182;55.712;37.612;2022-07-23T10:05:12;99816.75;;;37.83;23.77
69460;BME280;57182;55.712;37.612;2022-07-23T10:07:57;99807.69;;;37.77;24.08
69460;BME280;57182;55.712;37.612;2022-07-23T10:14:50;99825.69;;;37.43;24.13
69460;BME280;57182;55.712;37.612;2022-07-23T10:17:20;99811.78;;;37.65;24.07
69460;BME280;57182;55.712;37.612;2022-07-23T10:19:57;99806.41;;;37.28;24.61
69460;BME280;57182;55.712;37.612;2022-07-23T10:22:28;99814.09;;;35.99;26.78
69460;BME280;57182;55.712;37.612;2022-07-23T10:39:32;99791.69;;;31.01;32.88
69460;BME280;57182;55.712;37.612;2022-07-23T10:42:14;99813.56;;;30.81;34.37
69460;BME280;57182;55.712;37.612;2022-07-23T10:44:47;99820.03;;;30.80;34.11
69460;BME280;57182;55.712;37.612;2022-07-23T10:47:27;99785.75;;;30.68;34.43
69460;BME280;57182;55.712;37.612;2022-07-23T10:50:24;99793.47;;;30.89;33.62
69460;BME280;57182;55.712;37.612;2022-07-23T10:53:30;99787.78;;;31.51;32.82
69460;BME280;57182;55.712;37.612;2022-07-23T10:55:58;99765.31;;;32.45;31.00
69460;BME280;57182;55.712;37.612;2022-07-23T10:58:49;99771.53;;;32.34;32.47
69460;BME280;57182;55.712;37.612;2022-07-23T11:01:37;99740.13;;;31.55;33.51
69460;BME280;57182;55.712;37.612;2022-07-23T11:04:06;99767.00;;;31.27;33.14
69460;BME280;57182;55.712;37.612;2022-07-23T11:09:42;99770.94;;;30.88;35.10
69460;BME280;57182;55.712;37.612;2022-07-23T11:17:58;99760.81;;;34.05;29.58
69460;BME280;57182;55.712;37.612;2022-07-23T11:20:29;99755.66;;;34.37;29.60
69460;BME280;57182;55.712;37.612;2022-07-23T11:22:58;99772.94;;;34.97;28.68
69460;BME280;57182;55.712;37.612;2022-07-23T11:25:32;99759.22;;;35.30;28.37
69460;BME280;57182;55.712;37.612;2022-07-23T11:28:16;99747.88;;;35.00;27.19
69460;BME280;57182;55.712;37.612;2022-07-23T11:30:47;99742.84;;;35.30;27.52
69460;BME280;57182;55.712;37.612;2022-07-23T11:33:18;99758.72;;;35.82;27.05
69460;BME280;57182;55.712;37.612;2022-07-23T11:35:51;99732.06;;;35.67;26.95
69460;BME280;57182;55.712;37.612;2022-07-23T11:38:27;99753.66;;;35.95;26.74
69460;BME280;57182;55.712;37.612;2022-07-23T11:40:56;99741.50;;;35.33;27.48
69460;BME280;57182;55.712;37.612;2022-07-23T11:43:25;99759.72;;;35.49;27.20
69460;BME280;57182;55.712;37.612;2022-07-23T11:45:59;99752.41;;;35.11;27.80
69460;BME280;57182;55.712;37.612;2022-07-23T11:48:29;99739.06;;;35.36;26.89
69460;BME280;57182;55.712;37.612;2022-07-23T11:50:59;99741.47;;;35.76;27.29
69460;BME280;57182;55.712;37.612;2022-07-23T11:53:33;99730.56;;;36.08;26.98
69460;BME280;57182;55.712;37.612;2022-07-23T11:56:09;99742.44;;;36.24;26.83
69460;BME280;57182;55.712;37.612;2022-07-23T11:58:38;99714.44;;;36.43;26.35
69460;BME280;57182;55.712;37.612;2022-07-23T12:01:06;99729.44;;;36.36;26.37
69460;BME280;57182;55.712;37.612;2022-07-23T12:03:49;99724.47;;;36.33;26.27
69460;BME280;57182;55.712;37.612;2022-07-23T12:06:17;99736.31;;;36.07;26.48
69460;BME280;57182;55.712;37.612;2022-07-23T12:08:45;99743.06;;;35.51;27.38
69460;BME280;57182;55.712;37.612;2022-07-23T12:11:13;99715.88;;;35.12;27.97
69460;BME280;57182;55.712;37.612;2022-07-23T12:13:40;99727.63;;;34.25;28.75
69460;BME280;57182;55.712;37.612;2022-07-23T12:16:08;99709.91;;;33.49;29.27
69460;BME280;57182;55.712;37.612;2022-07-23T12:18:41;99739.09;;;33.93;29.42
69460;BME280;57182;55.712;37.612;2022-07-23T12:21:09;99725.91;;;33.45;29.68
69460;BME280;57182;55.712;37.612;2022-07-23T12:23:37;99706.53;;;32.79;30.22
69460;BME280;57182;55.712;37.612;2022-07-23T12:26:05;99717.09;;;32.64;30.85
69460;BME280;57182;55.712;37.612;2022-07-23T12:28:37;99703.59;;;32.11;31.74
69460;BME280;57182;55.712;37.612;2022-07-23T12:31:06;99739.16;;;32.21;32.02
69460;BME280;57182;55.712;37.612;2022-07-23T12:33:37;99699.69;;;32.88;30.85
69460;BME280;57182;55.712;37.612;2022-07-23T12:36:07;99724.97;;;33.96;29.48
69460;BME280;57182;55.712;37.612;2022-07-23T12:38:42;99708.22;;;34.54;28.69
69460;BME280;57182;55.712;37.612;2022-07-23T12:41:11;99706.41;;;35.20;27.59
69460;BME280;57182;55.712;37.612;2022-07-23T12:43:43;99678.19;;;35.63;26.58
69460;BME280;57182;55.712;37.612;2022-07-23T12:46:13;99698.66;;;36.19;25.76
69460;BME280;57182;55.712;37.612;2022-07-23T12:51:30;99676.59;;;35.98;25.77
69460;BME280;57182;55.712;37.612;2022-07-23T12:54:05;99685.53;;;36.16;25.72
69460;BME280;57182;55.712;37.612;2022-07-23T12:56:35;99678.81;;;36.33;25.76
69460;BME280;57182;55.712;37.612;2022-07-23T13:01:35;99687.28;;;35.68;26.18
69460;BME280;57182;55.712;37.612;2022-07-23T13:06:48;99689.78;;;36.02;26.45
69460;BME280;57182;55.712;37.612;2022-07-23T13:09:27;99690.69;;;35.54;27.26
69460;BME280;57182;55.712;37.612;2022-07-23T13:11:59;99683.91;;;34.69;27.04
69460;BME280;57182;55.712;37.612;2022-07-23T13:14:28;99686.34;;;34.33;28.37
69460;BME280;57182;55.712;37.612;2022-07-23T13:16:55;99685.78;;;34.52;28.21
69460;BME280;57182;55.712;37.612;2022-07-23T13:19:29;99662.50;;;34.83;27.91
69460;BME280;57182;55.712;37.612;2022-07-23T13:21:56;99676.63;;;35.67;26.78
69460;BME280;57182;55.712;37.612;2022-07-23T13:24:24;99657.63;;;36.14;25.91
69460;BME280;57182;55.712;37.612;2022-07-23T13:26:53;99660.31;;;36.09;25.42
69460;BME280;57182;55.712;37.612;2022-07-23T13:29:21;99651.13;;;35.93;25.44
69460;BME280;57182;55.712;37.612;2022-07-23T13:31:49;99657.63;;;35.82;25.74
69460;BME280;57182;55.712;37.612;2022-07-23T13:34:17;99683.56;;;36.11;25.82
69460;BME280;57182;55.712;37.612;2022-07-23T13:36:46;99653.31;;;35.91;26.19
69460;BME280;57182;55.712;37.612;2022-07-23T13:39:14;99666.25;;;36.01;25.80
69460;BME280;57182;55.712;37.612;2022-07-23T13:41:41;99674.22;;;35.75;26.58
69460;BME280;57182;55.712;37.612;2022-07-23T13:44:17;99653.81;;;36.15;26.12
69460;BME280;57182;55.712;37.612;2022-07-23T13:46:52;99646.22;;;36.27;25.45
69460;BME280;57182;55.712;37.612;2022-07-23T13:49:20;99651.63;;;36.53;25.74
69460;BME280;57182;55.712;37.612;2022-07-23T13:51:48;99644.06;;;36.76;25.14
69460;BME280;57182;55.712;37.612;2022-07-23T13:54:15;99654.97;;;36.71;25.54
69460;BME280;57182;55.712;37.612;2022-07-23T13:56:43;99653.28;;;36.65;25.72
69460;BME280;57182;55.712;37.612;2022-07-23T13:59:11;99641.44;;;36.07;25.92
69460;BME280;57182;55.712;37.612;2022-07-23T14:01:38;99656.88;;;35.60;26.89
69460;BME280;57182;55.712;37.612;2022-07-23T14:04:26;99657.31;;;35.03;27.80
69460;BME280;57182;55.712;37.612;2022-07-23T14:06:53;99634.91;;;34.58;27.80
69460;BME280;57182;55.712;37.612;2022-07-23T14:09:21;99642.16;;;34.31;27.75
69460;BME280;57182;55.712;37.612;2022-07-23T14:11:51;99653.78;;;33.76;29.47
69460;BME280;57182;55.712;37.612;2022-07-23T14:14:18;99631.72;;;33.44;28.99
69460;BME280;57182;55.712;37.612;2022-07-23T14:16:46;99635.78;;;33.14;29.88
69460;BME280;57182;55.712;37.612;2022-07-23T14:19:13;99669.94;;;33.10;29.74
69460;BME280;57182;55.712;37.612;2022-07-23T14:21:41;99647.19;;;32.87;29.59
69460;BME280;57182;55.712;37.612;2022-07-23T14:24:08;99644.41;;;32.48;30.03
69460;BME280;57182;55.712;37.612;2022-07-23T14:26:36;99672.78;;;32.17;30.58
69460;BME280;57182;55.712;37.612;2022-07-23T14:29:04;99624.63;;;31.71;31.18
69460;BME280;57182;55.712;37.612;2022-07-23T14:31:34;99636.50;;;31.58;31.38
69460;BME280;57182;55.712;37.612;2022-07-23T14:34:03;99636.38;;;31.53;31.50
69460;BME280;57182;55.712;37.612;2022-07-23T14:36:30;99633.06;;;31.51;31.64
69460;BME280;57182;55.712;37.612;2022-07-23T14:38:58;99647.72;;;31.50;31.95
69460;BME280;57182;55.712;37.612;2022-07-23T14:41:27;99640.19;;;31.34;31.78
69460;BME280;57182;55.712;37.612;2022-07-23T14:43:56;99633.03;;;31.10;32.26
69460;BME280;57182;55.712;37.612;2022-07-23T14:46:23;99637.72;;;31.03;32.66
69460;BME280;57182;55.712;37.612;2022-07-23T14:48:51;99635.75;;;30.92;32.68
69460;BME280;57182;55.712;37.612;2022-07-23T14:51:18;99649.16;;;30.87;33.16
69460;BME280;57182;55.712;37.612;2022-07-23T14:53:46;99642.84;;;30.57;33.44